Time;durP1;ratioP1;P1;durP2;ratioP2;P2;SDS_P1;SDS_P2;PMS_P1;PMS_P2;Temp;Humidity;BMP_temperature;BMP_pressure;BME280_temperature;BME280_humidity;BME280_pressure;Samples;Min_cycle;Max_cycle;Signal;HPM_P1;HPM_P2
2022/03/24 00:00:40;;;;;;;0.75;0.75;;;7.50;87.10;;;;;;4934825;29;20071;-63
2022/03/24 00:03:07;;;;;;;7.95;1.95;;;7.50;87.70;;;;;;4952522;29;20114;-63
2022/03/24 00:05:33;;;;;;;12.73;4.32;;;7.60;87.80;;;;;;4935548;29;20582;-63
2022/03/24 00:07:59;;;;;;;0.95;0.95;;;7.50;88.00;;;;;;4952537;29;20031;-63
2022/03/24 00:10:29;;;;;;;4.30;1.58;;;7.60;88.20;;;;;;4935106;29;20031;-63
2022/03/24 00:12:57;;;;;;;1.42;1.33;;;7.60;88.20;;;;;;4952639;29;20059;-63
2022/03/24 00:15:26;;;;;;;0.43;0.43;;;7.60;88.80;;;;;;4952899;29;20035;-63
2022/03/24 00:17:52;;;;;;;5.07;1.63;;;7.40;89.90;;;;;;4952584;29;20035;-63
2022/03/24 00:20:18;;;;;;;17.23;10.65;;;7.30;91.70;;;;;;4952358;29;20039;-63
2022/03/24 00:22:44;;;;;;;11.32;5.57;;;7.30;93.00;;;;;;4952258;29;20036;-63
2022/03/24 00:25:10;;;;;;;2.30;1.70;;;7.20;92.00;;;;;;4952444;29;20038;-63
2022/03/24 00:27:36;;;;;;;0.25;0.25;;;7.40;99.90;;;;;;4952228;29;20049;-63
2022/03/24 00:30:03;;;;;;;3.10;2.17;;;7.40;95.60;;;;;;4952272;29;20102;-63
2022/03/24 00:32:32;;;;;;;0.75;0.75;;;7.30;93.40;;;;;;4903590;29;20557;-63
2022/03/24 00:34:57;;;;;;;5.75;2.70;;;7.20;93.20;;;;;;4952284;29;20039;-63
2022/03/24 00:37:25;;;;;;;3.13;1.35;;;7.10;93.20;;;;;;4952346;29;20031;-63
2022/03/24 00:39:50;;;;;;;1.65;1.55;;;7.10;93.20;;;;;;4951866;29;20027;-63
2022/03/24 00:42:16;;;;;;;4.22;3.17;;;7.00;93.10;;;;;;4952317;28;20558;-63
2022/03/24 00:44:42;;;;;;;2.15;1.98;;;7.10;93.10;;;;;;4952229;29;20499;-63
2022/03/24 00:47:10;;;;;;;0.50;0.50;;;7.10;93.00;;;;;;4952372;29;20118;-63
2022/03/24 00:49:37;;;;;;;2.58;1.70;;;7.00;93.10;;;;;;4951821;29;20035;-63
2022/03/24 00:52:03;;;;;;;1.50;1.40;;;6.90;93.20;;;;;;4951873;29;20066;-63
2022/03/24 00:54:29;;;;;;;0.30;0.30;;;6.90;93.40;;;;;;4934997;29;20039;-63
2022/03/24 00:56:55;;;;;;;7.50;1.13;;;6.80;93.60;;;;;;4952266;29;20134;-63
2022/03/24 00:59:22;;;;;;;5.57;1.00;;;6.80;93.80;;;;;;4952012;29;20039;-63
2022/03/24 01:01:48;;;;;;;0.98;0.98;;;6.70;93.90;;;;;;4952160;29;20031;-63
2022/03/24 01:04:14;;;;;;;53.45;2.42;;;6.70;94.00;;;;;;4950544;28;20134;-63
2022/03/24 01:06:40;;;;;;;3.92;1.35;;;6.70;94.10;;;;;;4934721;29;20035;-63
2022/03/24 01:09:06;;;;;;;0.35;0.35;;;6.70;94.20;;;;;;4934848;29;20034;-63
2022/03/24 01:11:32;;;;;;;1.83;1.63;;;6.70;94.40;;;;;;4936453;29;20028;-63
2022/03/24 01:13:58;;;;;;;1.45;1.35;;;6.80;94.30;;;;;;4955515;29;20078;-63
2022/03/24 01:16:24;;;;;;;1.10;1.02;;;6.80;94.10;;;;;;4938275;29;20125;-63
2022/03/24 01:18:51;;;;;;;0.15;0.15;;;6.70;94.40;;;;;;4955540;29;20122;-63
2022/03/24 01:21:17;;;;;;;3.97;2.85;;;6.70;94.30;;;;;;4955384;29;20027;-63
2022/03/24 01:23:45;;;;;;;1.85;1.35;;;6.70;94.40;;;;;;4955467;29;20035;-63
2022/03/24 01:26:11;;;;;;;5.57;1.17;;;6.70;94.40;;;;;;4955206;29;20495;-62
2022/03/24 01:28:39;;;;;;;1.85;1.73;;;6.60;94.40;;;;;;4937896;29;20035;-63
2022/03/24 01:31:08;;;;;;;2.85;1.60;;;6.50;94.80;;;;;;4955378;29;20027;-63
2022/03/24 01:33:39;;;;;;;0.20;0.20;;;6.50;95.00;;;;;;4938548;29;20027;-63
2022/03/24 01:36:06;;;;;;;0.65;0.65;;;6.40;95.40;;;;;;4955331;29;20035;-63
2022/03/24 01:38:32;;;;;;;2.35;0.63;;;6.50;95.50;;;;;;4953444;29;20046;-63
2022/03/24 01:40:58;;;;;;;1.10;1.08;;;6.50;95.40;;;;;;4938159;29;20043;-61
2022/03/24 01:43:25;;;;;;;3.00;1.60;;;6.40;95.30;;;;;;4955258;29;20074;-61
2022/03/24 01:45:51;;;;;;;0.52;0.52;;;6.40;95.70;;;;;;4954994;29;20040;-62
2022/03/24 01:48:16;;;;;;;6.68;4.32;;;6.30;96.20;;;;;;4937498;29;20506;-62
2022/03/24 01:50:43;;;;;;;1.27;1.25;;;6.10;97.60;;;;;;4938036;29;20081;-62
2022/03/24 01:53:12;;;;;;;1.75;1.08;;;5.90;98.60;;;;;;4937449;29;20526;-62
2022/03/24 01:55:38;;;;;;;2.20;0.82;;;5.80;99.00;;;;;;4954941;28;20042;-62
2022/03/24 01:58:05;;;;;;;2.60;2.00;;;5.80;98.80;;;;;;4954679;29;20495;-62
2022/03/24 02:00:31;;;;;;;3.00;0.90;;;5.60;99.50;;;;;;4954363;29;20754;-62
2022/03/24 02:03:02;;;;;;;2.72;2.50;;;5.40;99.90;;;;;;4937257;29;20395;-61
2022/03/24 02:05:31;;;;;;;0.10;0.10;;;5.20;99.90;;;;;;4946313;28;20026;-62
2022/03/24 02:08:02;;;;;;;2.88;2.67;;;5.00;99.90;;;;;;4950840;28;20031;-62
2022/03/24 02:10:28;;;;;;;1.27;0.55;;;5.00;99.90;;;;;;4956697;28;20463;-63
2022/03/24 02:12:56;;;;;;;0.40;0.40;;;4.90;99.90;;;;;;4973510;28;20031;-62
2022/03/24 02:15:23;;;;;;;0.55;0.55;;;4.90;99.90;;;;;;4967625;28;20035;-62
2022/03/24 02:17:49;;;;;;;1.27;1.25;;;4.90;99.90;;;;;;4937099;29;20495;-63
2022/03/24 02:20:15;;;;;;;0.45;0.45;;;4.90;99.90;;;;;;4937046;29;20039;-62
2022/03/24 02:22:41;;;;;;;8.05;2.10;;;5.00;99.90;;;;;;4953379;28;20046;-63
2022/03/24 02:25:09;;;;;;;1.15;1.15;;;5.00;99.90;;;;;;4970144;28;20027;-62
2022/03/24 02:27:36;;;;;;;1.88;1.77;;;5.20;99.90;;;;;;4973358;28;20039;-62
2022/03/24 02:30:04;;;;;;;1.65;1.55;;;5.30;99.90;;;;;;4956139;28;20022;-63
2022/03/24 02:32:30;;;;;;;1.23;1.13;;;5.40;99.90;;;;;;4956006;28;20426;-62
2022/03/24 02:34:56;;;;;;;1.75;1.65;;;5.50;99.90;;;;;;4956135;28;20038;-62
2022/03/24 02:37:25;;;;;;;1.13;1.02;;;5.50;99.90;;;;;;4972936;28;20039;-62
2022/03/24 02:39:53;;;;;;;3.63;1.80;;;5.40;99.90;;;;;;4955986;28;20050;-62
2022/03/24 02:42:29;;;;;;;2.08;1.92;;;5.30;99.90;;;;;;4952476;29;20067;-62
2022/03/24 02:45:06;;;;;;;3.05;1.98;;;5.20;99.90;;;;;;4954237;29;20042;-62
2022/03/24 02:47:35;;;;;;;1.08;1.05;;;4.90;99.90;;;;;;4952667;29;20066;-62
2022/03/24 02:50:04;;;;;;;0.38;0.38;;;4.90;99.90;;;;;;4953792;29;20034;-62
2022/03/24 02:52:30;;;;;;;0.95;0.82;;;5.00;99.90;;;;;;4952324;29;20028;-62
2022/03/24 02:54:56;;;;;;;0.55;0.55;;;5.00;99.90;;;;;;4967515;23;20050;-66
2022/03/24 02:57:22;;;;;;;0.43;0.43;;;5.00;99.90;;;;;;4953482;29;20042;-66
2022/03/24 02:59:48;;;;;;;1.17;0.95;;;4.90;99.90;;;;;;4951692;29;20031;-66
2022/03/24 03:02:17;;;;;;;0.40;0.40;;;4.80;99.90;;;;;;4953601;29;20078;-66
2022/03/24 03:04:45;;;;;;;2.53;0.55;;;4.80;99.90;;;;;;4953379;29;20526;-68
2022/03/24 03:07:13;;;;;;;0.35;0.35;;;4.80;99.90;;;;;;4936679;29;20062;-67
2022/03/24 03:09:40;;;;;;;1.20;1.20;;;4.70;99.90;;;;;;4936420;29;20024;-67
2022/03/24 03:12:09;;;;;;;0.30;0.30;;;4.50;99.90;;;;;;4953370;29;20081;-68
2022/03/24 03:14:35;;;;;;;0.40;0.40;;;4.50;99.90;;;;;;4936600;29;20027;-68
2022/03/24 03:17:01;;;;;;;0.47;0.47;;;4.40;99.90;;;;;;4936052;29;20031;-66
2022/03/24 03:19:29;;;;;;;0.30;0.30;;;4.30;99.90;;;;;;4952928;29;20031;-67
2022/03/24 03:21:56;;;;;;;0.68;0.65;;;4.20;99.90;;;;;;4953211;29;20035;-66
2022/03/24 03:24:22;;;;;;;0.43;0.43;;;4.20;99.90;;;;;;4935392;29;20043;-67
2022/03/24 03:26:49;;;;;;;0.85;0.85;;;4.10;99.90;;;;;;4952904;29;20035;-67
2022/03/24 03:29:17;;;;;;;0.70;0.70;;;4.20;99.90;;;;;;4935895;29;20034;-68
2022/03/24 03:31:43;;;;;;;1.25;1.15;;;4.20;99.90;;;;;;4952944;29;20039;-67
2022/03/24 03:34:09;;;;;;;0.35;0.35;;;4.20;99.90;;;;;;4952660;28;20038;-67
2022/03/24 03:36:40;;;;;;;0.10;0.10;;;4.10;99.90;;;;;;4936032;29;20031;-68
2022/03/24 03:39:10;;;;;;;1.73;1.60;;;4.00;99.90;;;;;;4936189;29;20039;-67
2022/03/24 03:41:46;;;;;;;1.77;0.65;;;3.90;99.90;;;;;;4952899;29;20550;-68
2022/03/24 03:44:12;;;;;;;1.98;1.75;;;3.90;99.90;;;;;;4935891;29;20376;-68
2022/03/24 03:46:38;;;;;;;0.47;0.47;;;3.90;99.90;;;;;;4952634;29;20031;-67
2022/03/24 03:49:07;;;;;;;3.28;2.38;;;3.80;99.90;;;;;;4952230;29;20039;-68
2022/03/24 03:51:35;;;;;;;1.45;1.02;;;3.80;99.90;;;;;;4952603;29;20474;-68
2022/03/24 03:54:01;;;;;;;0.28;0.28;;;3.70;99.90;;;;;;4935229;29;20042;-67
2022/03/24 03:56:28;;;;;;;1.00;1.00;;;3.70;99.90;;;;;;4952839;29;20427;-66
2022/03/24 03:58:54;;;;;;;0.40;0.40;;;3.70;99.90;;;;;;4935539;29;20035;-66
2022/03/24 04:01:19;;;;;;;0.10;0.10;;;3.80;99.90;;;;;;4952651;29;20122;-68
2022/03/24 04:03:46;;;;;;;0.20;0.20;;;3.80;99.90;;;;;;4927898;29;20114;-67
2022/03/24 04:06:12;;;;;;;1.15;1.10;;;3.80;99.90;;;;;;4945234;29;20123;-67
2022/03/24 04:08:42;;;;;;;0.20;0.20;;;3.90;99.90;;;;;;4943737;28;20542;-67
2022/03/24 04:11:12;;;;;;;0.68;0.68;;;3.90;99.90;;;;;;4943984;29;20027;-67
2022/03/24 04:13:42;;;;;;;1.67;1.58;;;4.00;99.90;;;;;;4916283;29;20028;-67
2022/03/24 04:16:11;;;;;;;0.30;0.30;;;4.10;99.90;;;;;;4941327;29;20066;-67
2022/03/24 04:18:46;;;;;;;1.98;1.50;;;4.20;99.90;;;;;;4933024;29;20492;-67
2022/03/24 04:21:12;;;;;;;0.43;0.43;;;4.20;99.90;;;;;;4933620;29;20062;-68
2022/03/24 04:23:40;;;;;;;1.50;1.40;;;4.20;99.90;;;;;;4933166;29;20558;-69
2022/03/24 04:26:07;;;;;;;0.40;0.40;;;4.20;99.90;;;;;;4933706;29;20031;-67
2022/03/24 04:28:33;;;;;;;1.75;1.65;;;4.30;99.90;;;;;;4951738;28;20502;-67
2022/03/24 04:30:59;;;;;;;1.48;1.40;;;4.30;99.90;;;;;;4952245;29;20039;-67
2022/03/24 04:33:26;;;;;;;1.15;0.98;;;4.30;99.90;;;;;;4934707;29;20101;-68
2022/03/24 04:35:52;;;;;;;1.23;1.10;;;4.30;99.90;;;;;;4923583;28;20047;-67
2022/03/24 04:38:18;;;;;;;0.75;0.75;;;4.30;99.90;;;;;;4957943;28;20074;-67
2022/03/24 04:40:44;;;;;;;1.35;1.27;;;4.30;99.90;;;;;;4935522;28;20045;-67
2022/03/24 04:43:10;;;;;;;5.50;3.13;;;4.30;99.90;;;;;;4966856;28;20038;-67
2022/03/24 04:45:35;;;;;;;0.30;0.30;;;4.20;99.90;;;;;;4981670;28;20501;-67
2022/03/24 04:48:02;;;;;;;1.08;0.68;;;4.10;99.90;;;;;;4986291;28;20393;-67
2022/03/24 04:50:29;;;;;;;0.10;0.10;;;4.10;99.90;;;;;;4979493;28;20034;-67
2022/03/24 04:52:56;;;;;;;0.85;0.85;;;4.00;99.90;;;;;;4974585;28;20037;-71
2022/03/24 04:55:22;;;;;;;2.20;0.93;;;3.90;99.90;;;;;;4957088;28;20089;-70
2022/03/24 04:57:48;;;;;;;2.15;1.92;;;3.70;99.90;;;;;;4974772;28;20019;-70
2022/03/24 05:00:17;;;;;;;0.52;0.52;;;3.40;99.90;;;;;;4974081;28;20034;-69
2022/03/24 05:02:46;;;;;;;0.40;0.40;;;3.40;99.90;;;;;;4957824;28;20049;-71
2022/03/24 05:05:12;;;;;;;1.42;1.38;;;3.20;99.90;;;;;;4957481;28;20435;-70
2022/03/24 05:07:39;;;;;;;0.95;0.85;;;2.90;99.90;;;;;;4974371;28;20038;-69
2022/03/24 05:10:06;;;;;;;0.60;0.60;;;2.90;99.90;;;;;;4957192;28;20031;-70
2022/03/24 05:12:32;;;;;;;1.10;1.05;;;3.00;99.90;;;;;;4977503;28;20058;-70
2022/03/24 05:14:59;;;;;;;1.10;1.08;;;3.00;99.90;;;;;;4970925;28;20061;-70
2022/03/24 05:17:25;;;;;;;0.50;0.43;;;3.00;99.90;;;;;;4938391;29;20031;-69
2022/03/24 05:19:52;;;;;;;1.17;1.15;;;3.00;99.90;;;;;;4954666;29;20031;-72
2022/03/24 05:22:18;;;;;;;0.40;0.40;;;3.00;99.90;;;;;;4955188;28;20033;-71
2022/03/24 05:24:44;;;;;;;2.80;0.85;;;3.00;99.90;;;;;;4937638;29;20039;-69
2022/03/24 05:27:10;;;;;;;0.10;0.10;;;3.00;99.90;;;;;;4955135;29;20547;-69
2022/03/24 05:29:37;;;;;;;35.65;7.75;;;3.00;99.90;;;;;;4937620;29;20027;-71
2022/03/24 05:32:04;;;;;;;2.60;1.65;;;2.90;99.90;;;;;;4937941;29;20027;-71
2022/03/24 05:34:32;;;;;;;8.10;1.38;;;3.00;99.90;;;;;;4954785;29;20495;-70
2022/03/24 05:36:58;;;;;;;0.93;0.93;;;3.20;99.90;;;;;;4954961;29;20558;-72
2022/03/24 05:39:24;;;;;;;0.40;0.40;;;3.40;99.90;;;;;;4954289;29;20031;-71
2022/03/24 05:41:50;;;;;;;0.30;0.30;;;3.60;99.90;;;;;;4937530;29;20082;-72
2022/03/24 05:44:15;;;;;;;0.75;0.75;;;3.60;99.90;;;;;;4987966;28;20581;-72
2022/03/24 05:46:46;;;;;;;1.08;1.08;;;3.60;99.90;;;;;;4975698;28;20030;-69
2022/03/24 05:49:15;;;;;;;2.42;1.30;;;3.70;99.90;;;;;;4975643;28;20068;-73
2022/03/24 05:51:42;;;;;;;1.05;0.75;;;3.70;99.90;;;;;;4967530;28;20041;-73
2022/03/24 05:54:10;;;;;;;0.82;0.82;;;3.70;99.90;;;;;;4969706;28;20514;-73
2022/03/24 05:56:36;;;;;;;1.60;1.50;;;3.60;99.90;;;;;;4956218;28;20045;-73
2022/03/24 05:59:02;;;;;;;0.25;0.25;;;3.40;99.90;;;;;;4971464;28;20031;-72
2022/03/24 06:01:29;;;;;;;0.52;0.52;;;3.40;99.90;;;;;;4973828;28;20046;-72
2022/03/24 06:03:55;;;;;;;6.65;1.75;;;3.40;99.90;;;;;;4940218;28;20061;-72
2022/03/24 06:06:25;;;;;;;6.40;3.83;;;3.50;99.90;;;;;;4956237;28;20031;-72
2022/03/24 06:08:52;;;;;;;6.80;1.88;;;3.60;99.90;;;;;;4956638;28;20022;-72
2022/03/24 06:11:19;;;;;;;1.30;1.20;;;3.70;99.90;;;;;;4973469;28;20348;-72
2022/03/24 06:13:46;;;;;;;0.47;0.47;;;3.80;99.90;;;;;;4986264;28;20065;-72
2022/03/24 06:16:15;;;;;;;4.35;2.92;;;3.90;99.90;;;;;;4948051;28;20371;-72
2022/03/24 06:19:17;;;;;;;;;;;;;;;;;;;;;
2022/03/24 06:22:12;;;;;;;0.52;0.52;;;4.10;99.90;;;;;;4958817;28;20122;-72
2022/03/24 06:24:37;;;;;;;;;;;4.20;99.90;;;;;;4974100;28;20541;-70
2022/03/24 06:27:13;;;;;;;0.85;0.85;;;4.30;99.90;;;;;;4972755;28;20001;-74
2022/03/24 06:29:39;;;;;;;1.27;1.17;;;4.40;99.90;;;;;;4973107;28;20035;-71
2022/03/24 06:32:16;;;;;;;2.92;2.72;;;4.50;99.90;;;;;;4972781;28;20065;-72
2022/03/24 06:34:54;;;;;;;2.10;2.00;;;4.60;99.90;;;;;;4958276;28;20027;-71
2022/03/24 06:37:29;;;;;;;1.15;1.05;;;4.70;99.90;;;;;;4955750;28;20037;-71
2022/03/24 06:40:14;;;;;;;19.73;3.75;;;4.80;99.90;;;;;;4956053;28;20050;-72
2022/03/24 06:43:12;;;;;;;4.47;2.92;;;4.90;99.90;;;;;;4953484;28;20041;-71
2022/03/24 06:46:13;;;;;;;3.53;1.27;;;5.10;99.90;;;;;;4973183;28;20035;-71
2022/03/24 06:49:15;;;;;;;0.52;0.52;;;5.20;99.90;;;;;;4972729;28;20026;-72
2022/03/24 06:51:41;;;;;;;2.03;1.77;;;5.30;99.90;;;;;;4972561;28;20035;-71
2022/03/24 06:54:07;;;;;;;0.70;0.70;;;5.40;99.90;;;;;;4972721;28;20034;-71
2022/03/24 06:56:34;;;;;;;1.00;0.95;;;5.50;99.90;;;;;;4972635;28;20045;-71
2022/03/24 06:58:59;;;;;;;1.33;1.23;;;5.60;99.90;;;;;;4972394;28;20042;-71
2022/03/24 07:01:25;;;;;;;8.32;2.78;;;5.70;99.90;;;;;;4972391;28;20487;-71
2022/03/24 07:03:53;;;;;;;12.27;5.07;;;5.80;99.90;;;;;;4955683;28;20041;-71
2022/03/24 07:06:19;;;;;;;0.10;0.10;;;5.90;99.90;;;;;;4955691;28;20114;-71
2022/03/24 07:08:45;;;;;;;0.40;0.40;;;5.90;99.90;;;;;;4972146;28;20486;-71
2022/03/24 07:11:11;;;;;;;0.40;0.40;;;6.00;99.90;;;;;;4972577;28;20034;-71
2022/03/24 07:13:36;;;;;;;0.25;0.25;;;6.10;99.90;;;;;;4972388;28;20022;-71
2022/03/24 07:16:02;;;;;;;1.13;1.10;;;6.20;99.90;;;;;;4972138;28;20114;-71
2022/03/24 07:18:28;;;;;;;0.45;0.45;;;6.30;99.90;;;;;;4972278;28;20041;-71
2022/03/24 07:20:54;;;;;;;5.18;2.45;;;6.40;99.90;;;;;;4955292;28;20034;-71
2022/03/24 07:23:20;;;;;;;1.35;1.25;;;6.40;99.90;;;;;;4972361;28;20089;-71
2022/03/24 07:25:45;;;;;;;2.22;1.85;;;6.40;99.90;;;;;;4972321;28;20046;-71
2022/03/24 07:28:11;;;;;;;1.00;1.00;;;6.50;99.90;;;;;;4972392;28;20034;-71
2022/03/24 07:30:37;;;;;;;6.68;1.65;;;6.60;99.90;;;;;;4972199;28;20418;-72
2022/03/24 07:33:04;;;;;;;1.42;1.33;;;6.60;99.90;;;;;;4972144;28;20157;-71
2022/03/24 07:35:33;;;;;;;3.05;2.15;;;6.70;99.90;;;;;;4971961;28;20573;-71
2022/03/24 07:37:59;;;;;;;1.45;1.08;;;6.80;99.90;;;;;;4955719;28;20047;-70
2022/03/24 07:40:26;;;;;;;0.80;0.70;;;6.90;99.90;;;;;;4954704;28;20059;-69
2022/03/24 07:42:54;;;;;;;2.63;2.15;;;7.00;99.90;;;;;;4972348;28;20027;-70
2022/03/24 07:45:22;;;;;;;4.25;3.95;;;7.00;99.90;;;;;;4971711;28;20463;-70
2022/03/24 07:48:26;;;;;;;20.40;11.07;;;7.20;99.90;;;;;;4971953;28;20038;-70
2022/03/24 07:50:56;;;;;;;1.20;1.17;;;7.30;99.90;;;;;;4915249;29;20138;-70
2022/03/24 07:53:28;;;;;;;2.20;1.75;;;7.40;99.90;;;;;;4965525;28;20122;-70
2022/03/24 07:55:56;;;;;;;2.10;1.52;;;7.50;99.90;;;;;;4971812;28;20070;-70
2022/03/24 07:58:23;;;;;;;4.47;3.80;;;7.50;99.90;;;;;;4954660;28;20097;-70
2022/03/24 08:00:49;;;;;;;0.55;0.55;;;7.60;99.90;;;;;;4971627;28;20061;-69
2022/03/24 08:03:20;;;;;;;10.82;2.47;;;7.70;99.90;;;;;;4954690;28;20038;-70
2022/03/24 08:05:48;;;;;;;0.85;0.85;;;7.80;99.90;;;;;;4954846;28;20105;-68
2022/03/24 08:08:15;;;;;;;2.28;1.55;;;7.90;99.90;;;;;;4954282;28;20038;-69
2022/03/24 08:10:43;;;;;;;0.40;0.40;;;8.00;99.90;;;;;;4971486;28;20054;-69
2022/03/24 08:13:11;;;;;;;4.07;3.67;;;8.20;99.90;;;;;;4954480;28;20077;-69
2022/03/24 08:15:37;;;;;;;6.63;2.38;;;8.30;99.90;;;;;;4949934;29;20086;-69
2022/03/24 08:18:05;;;;;;;3.70;2.08;;;8.30;99.90;;;;;;4952604;29;20059;-69
2022/03/24 08:20:32;;;;;;;3.85;1.80;;;8.40;99.90;;;;;;4934319;29;20031;-69
2022/03/24 08:22:59;;;;;;;0.63;0.63;;;8.50;99.90;;;;;;4935298;29;20083;-69
2022/03/24 08:25:25;;;;;;;1.65;1.08;;;8.60;99.90;;;;;;4935232;29;20038;-70
2022/03/24 08:27:51;;;;;;;2.58;1.55;;;8.70;99.90;;;;;;4951923;29;20023;-70
2022/03/24 08:30:17;;;;;;;3.05;2.50;;;8.80;99.90;;;;;;4951498;29;20042;-70
2022/03/24 08:32:43;;;;;;;3.25;2.40;;;8.90;99.50;;;;;;4938597;28;20110;-69
2022/03/24 08:35:09;;;;;;;1.83;1.73;;;9.00;99.30;;;;;;4971269;28;20023;-69
2022/03/24 08:37:35;;;;;;;5.88;1.95;;;9.10;99.50;;;;;;4953610;28;20038;-69
2022/03/24 08:40:01;;;;;;;11.93;3.05;;;9.20;98.90;;;;;;4971387;28;20030;-69
2022/03/24 08:42:27;;;;;;;6.35;3.10;;;9.30;98.60;;;;;;4970121;28;20035;-70
2022/03/24 08:44:53;;;;;;;6.70;1.20;;;9.40;98.20;;;;;;4970999;28;20118;-69
2022/03/24 08:47:19;;;;;;;2.35;1.95;;;9.50;98.20;;;;;;4971291;28;20176;-70
2022/03/24 08:49:45;;;;;;;1.48;1.38;;;9.70;97.90;;;;;;4953526;28;20447;-71
2022/03/24 08:52:12;;;;;;;0.50;0.50;;;9.70;97.70;;;;;;4953679;28;20062;-69
2022/03/24 08:54:37;;;;;;;0.15;0.15;;;9.90;97.70;;;;;;4983371;23;20452;-63
2022/03/24 08:57:04;;;;;;;0.77;0.77;;;10.00;97.30;;;;;;4953524;28;20049;-63
2022/03/24 08:59:30;;;;;;;3.45;2.58;;;10.10;96.90;;;;;;4969077;28;20043;-63
2022/03/24 09:01:57;;;;;;;1.30;1.20;;;10.30;96.40;;;;;;4970831;28;20114;-63
2022/03/24 09:04:26;;;;;;;2.58;1.25;;;10.50;95.90;;;;;;4970058;28;20418;-63
2022/03/24 09:06:53;;;;;;;1.05;1.02;;;10.60;95.50;;;;;;4971152;28;20027;-64
2022/03/24 09:09:22;;;;;;;0.77;0.77;;;10.70;94.80;;;;;;4970805;28;20034;-64
2022/03/24 09:11:49;;;;;;;1.80;1.70;;;10.90;95.10;;;;;;4969694;28;20474;-63
2022/03/24 09:14:16;;;;;;;1.45;1.35;;;11.00;94.80;;;;;;4969672;28;20027;-63
2022/03/24 09:16:43;;;;;;;3.83;1.98;;;11.30;93.90;;;;;;4960511;28;20023;-63
2022/03/24 09:19:12;;;;;;;2.67;1.95;;;11.50;92.80;;;;;;4953121;28;20041;-63
2022/03/24 09:21:38;;;;;;;0.90;0.82;;;11.60;92.30;;;;;;4953934;28;20165;-63
2022/03/24 09:24:05;;;;;;;12.93;1.20;;;11.70;91.90;;;;;;4953744;28;20102;-63
2022/03/24 09:26:30;;;;;;;1.92;1.83;;;11.90;91.60;;;;;;4953606;28;20027;-63
2022/03/24 09:28:58;;;;;;;8.35;4.43;;;12.10;91.40;;;;;;4953767;28;20390;-63
2022/03/24 09:31:24;;;;;;;4.20;3.40;;;12.30;90.70;;;;;;4971031;28;20627;-63
2022/03/24 09:33:50;;;;;;;2.40;1.40;;;12.30;90.50;;;;;;4974465;28;20132;-65
2022/03/24 09:36:16;;;;;;;14.50;3.90;;;12.50;90.70;;;;;;4974445;28;20041;-63
2022/03/24 09:38:42;;;;;;;1.67;1.50;;;12.60;90.30;;;;;;4956734;28;20106;-63
2022/03/24 09:41:10;;;;;;;2.13;1.88;;;12.80;90.60;;;;;;4957249;28;20511;-64
2022/03/24 09:43:39;;;;;;;34.13;2.35;;;12.90;90.20;;;;;;4973977;28;20035;-64
2022/03/24 09:46:05;;;;;;;3.03;2.53;;;13.20;89.20;;;;;;4973887;28;20066;-63
2022/03/24 09:48:30;;;;;;;3.72;3.35;;;13.30;88.70;;;;;;4973965;28;20019;-64
2022/03/24 09:50:56;;;;;;;6.13;2.80;;;13.50;87.70;;;;;;4974216;28;20034;-64
2022/03/24 09:53:23;;;;;;;2.50;2.30;;;13.50;86.90;;;;;;4956913;28;20026;-64
2022/03/24 09:55:50;;;;;;;1.75;1.35;;;13.80;86.40;;;;;;4973869;28;20034;-64
2022/03/24 09:58:16;;;;;;;8.82;3.30;;;13.90;85.40;;;;;;4940422;28;20030;-64
2022/03/24 10:00:43;;;;;;;3.70;3.00;;;14.00;85.30;;;;;;4956424;28;20046;-64
2022/03/24 10:03:21;;;;;;;1.40;1.30;;;14.20;84.50;;;;;;4956391;28;20030;-64
2022/03/24 10:06:07;;;;;;;0.55;0.55;;;14.40;84.60;;;;;;4973809;28;20059;-64
2022/03/24 10:08:36;;;;;;;3.08;1.92;;;14.70;84.40;;;;;;4973462;28;20031;-63
2022/03/24 10:11:06;;;;;;;7.13;3.70;;;14.80;82.10;;;;;;4973575;28;20482;-64
2022/03/24 10:13:51;;;;;;;5.53;3.63;;;14.60;80.10;;;;;;4956757;28;20033;-64
2022/03/24 10:16:43;;;;;;;3.28;2.15;;;14.70;81.70;;;;;;4947342;29;20023;-64
2022/03/24 10:19:18;;;;;;;2.75;2.55;;;15.00;79.80;;;;;;4943184;28;20074;-64
2022/03/24 10:21:50;;;;;;;2.55;2.33;;;15.10;80.10;;;;;;4937131;29;20035;-64
2022/03/24 10:24:19;;;;;;;3.35;3.05;;;14.90;79.90;;;;;;4937044;28;20050;-63
2022/03/24 10:27:00;;;;;;;2.00;1.83;;;15.10;80.20;;;;;;4954332;28;20035;-63
2022/03/24 10:29:28;;;;;;;5.18;2.05;;;15.30;78.60;;;;;;4953510;29;20619;-63
2022/03/24 10:32:11;;;;;;;2.17;1.73;;;15.70;78.50;;;;;;4953874;28;20037;-64
2022/03/24 10:34:43;;;;;;;4.57;3.65;;;16.00;77.00;;;;;;4936834;29;20023;-64
2022/03/24 10:37:18;;;;;;;3.92;1.45;;;16.40;76.60;;;;;;4954269;28;20134;-64
2022/03/24 10:40:05;;;;;;;14.90;2.17;;;16.60;73.40;;;;;;4940837;28;20482;-64
2022/03/24 10:42:37;;;;;;;1.95;1.75;;;16.80;74.00;;;;;;4989852;28;20038;-64
2022/03/24 10:45:20;;;;;;;2.22;2.03;;;17.20;71.80;;;;;;4990749;28;20368;-64
2022/03/24 10:48:01;;;;;;;1.38;1.13;;;17.40;70.60;;;;;;4992674;28;20074;-64
2022/03/24 10:50:40;;;;;;;5.32;3.97;;;17.60;68.80;;;;;;4974670;28;20037;-62
2022/03/24 10:53:16;;;;;;;1.17;1.10;;;17.70;83.30;;;;;;4974845;28;20080;-63
2022/03/24 10:55:59;;;;;;;3.47;2.10;;;18.00;78.70;;;;;;4992040;28;20034;-62
2022/03/24 10:58:44;;;;;;;2.70;2.08;;;18.10;67.40;;;;;;4990728;28;20065;-62
2022/03/24 11:01:14;;;;;;;1.33;1.05;;;18.40;66.30;;;;;;4990866;28;20030;-62
2022/03/24 11:03:41;;;;;;;3.33;2.03;;;18.60;66.10;;;;;;4990904;28;20029;-62
2022/03/24 11:06:19;;;;;;;3.08;2.55;;;18.60;65.80;;;;;;4975013;28;20121;-62
2022/03/24 11:08:56;;;;;;;3.63;2.45;;;18.70;69.20;;;;;;4974494;28;20368;-63
2022/03/24 11:11:22;;;;;;;0.82;0.75;;;19.00;65.70;;;;;;4990838;28;20069;-62
2022/03/24 11:13:58;;;;;;;4.72;2.05;;;19.00;64.20;;;;;;4990440;28;20048;-62
2022/03/24 11:16:33;;;;;;;0.73;0.73;;;19.30;63.90;;;;;;4979920;28;20494;-63
2022/03/24 11:19:01;;;;;;;2.75;2.15;;;19.30;64.50;;;;;;4954837;28;20161;-62
2022/03/24 11:21:42;;;;;;;3.50;3.22;;;19.20;64.10;;;;;;4972293;28;20552;-62
2022/03/24 11:24:07;;;;;;;4.50;3.15;;;19.00;65.70;;;;;;4972249;28;20031;-63
2022/03/24 11:26:35;;;;;;;0.95;0.90;;;19.50;62.70;;;;;;4955017;28;20101;-62
2022/03/24 11:29:03;;;;;;;3.17;2.85;;;19.70;62.10;;;;;;4971762;28;20023;-62
2022/03/24 11:31:31;;;;;;;2.17;1.67;;;19.70;62.40;;;;;;4955520;28;20383;-62
2022/03/24 11:34:00;;;;;;;7.50;2.38;;;20.10;60.60;;;;;;4955242;28;20027;-62
2022/03/24 11:36:28;;;;;;;4.22;2.55;;;20.50;60.70;;;;;;4972074;28;20494;-62
2022/03/24 11:39:00;;;;;;;2.63;1.30;;;20.80;59.50;;;;;;4954501;28;20096;-62
2022/03/24 11:41:48;;;;;;;1.98;1.50;;;20.70;59.20;;;;;;4955500;28;20031;-62
2022/03/24 11:44:39;;;;;;;4.22;2.53;;;20.50;58.80;;;;;;4955026;28;20513;-62
2022/03/24 11:47:20;;;;;;;7.63;3.33;;;20.90;57.80;;;;;;4954930;28;20125;-62
2022/03/24 11:50:09;;;;;;;4.00;2.28;;;21.40;57.40;;;;;;4955159;28;20431;-63
2022/03/24 11:52:35;;;;;;;6.00;4.70;;;22.00;54.90;;;;;;4971986;28;20027;-62
2022/03/24 11:55:01;;;;;;;10.20;3.88;;;21.70;54.70;;;;;;4954231;28;20394;-62
2022/03/24 11:57:36;;;;;;;2.67;2.45;;;21.80;55.20;;;;;;4954832;28;20101;-62
2022/03/24 12:00:14;;;;;;;2.63;1.95;;;22.20;53.40;;;;;;4971514;28;20031;-62
2022/03/24 12:02:42;;;;;;;2.95;2.35;;;22.50;53.20;;;;;;4971974;28;20039;-62
2022/03/24 12:05:10;;;;;;;2.83;2.15;;;22.60;52.30;;;;;;4972727;28;20051;-63
2022/03/24 12:07:37;;;;;;;5.55;2.58;;;22.90;51.80;;;;;;4954543;28;20538;-63
2022/03/24 12:10:28;;;;;;;9.98;3.30;;;23.20;51.20;;;;;;4971415;28;20417;-63
2022/03/24 12:13:22;;;;;;;1.80;1.05;;;22.50;50.90;;;;;;4971866;28;20026;-63
2022/03/24 12:16:21;;;;;;;10.30;4.03;;;23.10;50.70;;;;;;4950318;29;20502;-62
2022/03/24 12:18:47;;;;;;;4.55;3.85;;;21.40;50.50;;;;;;4951818;29;20027;-62
2022/03/24 12:21:24;;;;;;;2.50;2.25;;;22.20;50.20;;;;;;4952311;28;20042;-62
2022/03/24 12:24:09;;;;;;;4.70;2.78;;;24.10;49.20;;;;;;4952309;29;20428;-64
2022/03/24 12:26:55;;;;;;;4.47;3.63;;;24.20;47.20;;;;;;4951922;29;20039;-63
2022/03/24 12:29:27;;;;;;;4.85;2.90;;;25.30;47.60;;;;;;4934963;29;20019;-62
2022/03/24 12:32:11;;;;;;;8.60;1.73;;;24.60;45.60;;;;;;4934839;29;20050;-63
2022/03/24 12:34:39;;;;;;;8.95;3.15;;;25.60;45.90;;;;;;4951725;29;20031;-62
2022/03/24 12:37:25;;;;;;;2.63;2.28;;;24.40;45.80;;;;;;4951874;28;20075;-63
2022/03/24 12:40:07;;;;;;;2.97;2.58;;;25.50;44.90;;;;;;4934844;28;20133;-63
2022/03/24 12:42:51;;;;;;;4.07;3.38;;;25.70;44.40;;;;;;4970973;28;20031;-63
2022/03/24 12:45:38;;;;;;;3.78;2.55;;;25.90;44.60;;;;;;4971180;28;20031;-63
2022/03/24 12:48:12;;;;;;;6.55;2.90;;;23.90;45.00;;;;;;4971293;28;20030;-63
2022/03/24 12:50:37;;;;;;;1.73;1.27;;;24.50;45.60;;;;;;4971101;28;20030;-63
2022/03/24 12:53:07;;;;;;;5.50;3.92;;;24.60;43.30;;;;;;4971290;28;20418;-63
2022/03/24 12:55:39;;;;;;;2.78;1.58;;;24.30;44.70;;;;;;4970750;28;20491;-63
2022/03/24 12:58:14;;;;;;;2.10;1.92;;;25.20;43.30;;;;;;4954268;28;20081;-63
2022/03/24 13:01:01;;;;;;;6.25;4.03;;;25.20;43.50;;;;;;4970965;28;20037;-63
2022/03/24 13:03:27;;;;;;;3.90;3.42;;;25.60;42.80;;;;;;4953988;28;20031;-63
2022/03/24 13:05:54;;;;;;;3.72;2.38;;;24.80;43.90;;;;;;4970954;28;20065;-62
2022/03/24 13:08:20;;;;;;;3.95;1.95;;;25.30;43.20;;;;;;4956492;28;20096;-63